createdAt,value
2022-09-04T00:03:58.137Z,12.41
2022-09-04T00:09:14.888Z,12.31
2022-09-04T00:14:23.342Z,12.27
2022-09-04T00:19:37.289Z,12.21
2022-09-04T00:24:44.560Z,12.00
2022-09-04T00:30:01.421Z,12.08
2022-09-04T00:35:12.455Z,12.12
2022-09-04T00:40:26.727Z,12.20
2022-09-04T00:46:06.499Z,12.07
2022-09-04T00:51:18.520Z,12.03
2022-09-04T00:56:51.208Z,12.09
2022-09-04T01:02:03.680Z,11.99
2022-09-04T01:07:25.502Z,12.05
2022-09-04T01:12:39.737Z,12.13
2022-09-04T01:18:01.754Z,12.06
2022-09-04T01:23:27.028Z,12.18
2022-09-04T01:28:45.801Z,12.16
2022-09-04T01:34:02.218Z,12.15
2022-09-04T01:39:06.515Z,12.06
2022-09-04T01:44:14.034Z,11.93
2022-09-04T01:49:29.611Z,11.89
2022-09-04T01:54:45.060Z,11.95
2022-09-04T02:00:04.637Z,12.07
2022-09-04T02:05:19.298Z,12.21
2022-09-04T02:10:36.449Z,12.30
2022-09-04T02:15:50.907Z,12.18
2022-09-04T02:21:03.476Z,12.32
2022-09-04T02:26:15.805Z,12.35
2022-09-04T02:31:31.878Z,12.27
2022-09-04T02:36:43.227Z,12.36
2022-09-04T02:41:58.430Z,12.43
2022-09-04T02:47:16.307Z,12.56
2022-09-04T02:52:40.677Z,12.59
2022-09-04T02:58:00.418Z,12.55
2022-09-04T03:03:10.237Z,12.44
2022-09-04T03:08:18.907Z,12.48
2022-09-04T03:13:32.249Z,12.50
2022-09-04T03:18:57.294Z,12.59
2022-09-04T03:24:08.179Z,12.66
2022-09-04T03:29:25.694Z,12.63
2022-09-04T03:34:48.467Z,12.71
2022-09-04T03:40:07.808Z,12.73
2022-09-04T03:45:23.316Z,12.65
2022-09-04T03:50:37.398Z,12.62
2022-09-04T03:55:58.836Z,12.57
2022-09-04T04:01:13.807Z,12.55
2022-09-04T04:06:32.301Z,12.44
2022-09-04T04:12:07.086Z,12.60
2022-09-04T04:17:31.962Z,12.67
2022-09-04T04:22:50.793Z,12.71
2022-09-04T04:28:12.351Z,12.74
2022-09-04T04:33:43.091Z,12.74
2022-09-04T04:39:14.625Z,12.71
2022-09-04T04:44:48.254Z,12.81
2022-09-04T04:50:06.658Z,12.84
2022-09-04T04:55:26.779Z,12.74
2022-09-04T05:00:37.780Z,12.90
2022-09-04T05:05:57.362Z,12.81
2022-09-04T05:11:10.919Z,12.82
2022-09-04T05:16:22.325Z,12.58
2022-09-04T05:21:38.347Z,12.65
2022-09-04T05:26:51.637Z,12.72
2022-09-04T05:31:59.999Z,12.99
2022-09-04T05:37:14.778Z,13.18
2022-09-04T05:42:52.040Z,13.42
2022-09-04T05:48:08.940Z,13.49
2022-09-04T05:53:43.316Z,13.39
2022-09-04T05:59:10.445Z,13.41
2022-09-04T06:04:42.750Z,13.78
2022-09-04T06:10:01.433Z,13.66
2022-09-04T06:15:32.821Z,13.62
2022-09-04T06:20:52.501Z,13.87
2022-09-04T06:26:11.836Z,14.69
2022-09-04T06:31:52.377Z,14.62
2022-09-04T06:37:10.296Z,15.05
2022-09-04T06:42:30.598Z,15.60
2022-09-04T06:47:53.198Z,15.29
2022-09-04T06:53:20.089Z,15.57
2022-09-04T06:59:04.303Z,16.06
2022-09-04T07:04:21.604Z,16.15
2022-09-04T07:09:32.656Z,15.92
2022-09-04T07:15:14.504Z,16.60
2022-09-04T07:20:28.426Z,16.66
2022-09-04T07:25:42.557Z,16.57
2022-09-04T07:30:53.971Z,16.01
2022-09-04T07:36:10.223Z,16.49
2022-09-04T07:41:24.650Z,17.91
2022-09-04T07:46:37.706Z,20.67
2022-09-04T07:51:49.057Z,20.66
2022-09-04T07:57:19.082Z,20.23
2022-09-04T08:03:02.201Z,18.99
2022-09-04T08:08:40.217Z,17.49
2022-09-04T08:14:22.268Z,17.12
2022-09-04T08:19:41.109Z,16.95
2022-09-04T08:25:14.034Z,17.25
2022-09-04T08:30:21.778Z,17.35
2022-09-04T08:35:33.637Z,16.86
2022-09-04T08:41:25.856Z,16.58
2022-09-04T08:47:11.543Z,16.00
2022-09-04T08:52:53.304Z,16.26
2022-09-04T08:58:30.326Z,16.69
2022-09-04T09:04:07.899Z,17.20
2022-09-04T09:09:52.018Z,17.65
2022-09-04T09:15:29.780Z,18.08
2022-09-04T09:20:47.023Z,18.39
2022-09-04T09:26:09.807Z,18.32
2022-09-04T09:32:04.047Z,18.57
2022-09-04T09:37:35.962Z,18.53
2022-09-04T09:43:27.459Z,18.76
2022-09-04T09:48:58.131Z,18.96
2022-09-04T09:54:50.026Z,18.88
2022-09-04T10:00:18.869Z,18.57
2022-09-04T10:05:53.502Z,18.88
2022-09-04T10:11:30.880Z,18.48
2022-09-04T10:17:22.797Z,18.57
2022-09-04T10:22:53.933Z,18.48
2022-09-04T10:28:26.343Z,18.23
2022-09-04T10:33:46.235Z,18.06
2022-09-04T10:39:17.115Z,18.09
2022-09-04T10:44:45.178Z,17.46
2022-09-04T10:50:15.116Z,17.05
2022-09-04T10:55:33.268Z,16.50
2022-09-04T11:00:50.359Z,16.45
2022-09-04T11:06:35.977Z,16.62
2022-09-04T11:12:02.588Z,16.37
2022-09-04T11:17:46.661Z,16.61
2022-09-04T11:23:32.754Z,16.85
2022-09-04T11:28:58.916Z,16.59
2022-09-04T11:34:40.406Z,16.68
2022-09-04T11:40:12.846Z,16.76
2022-09-04T11:45:41.717Z,16.43
2022-09-04T11:51:03.812Z,15.98
2022-09-04T11:56:25.948Z,15.57
2022-09-04T12:01:49.926Z,15.09
2022-09-04T12:07:22.208Z,15.10
2022-09-04T12:13:14.740Z,15.41
2022-09-04T12:18:58.951Z,17.01
2022-09-04T12:24:36.136Z,18.17
2022-09-04T12:29:59.640Z,18.38
2022-09-04T12:35:37.454Z,18.86
2022-09-04T12:40:54.407Z,19.60
2022-09-04T12:46:14.958Z,20.34
2022-09-04T12:51:25.483Z,19.73
2022-09-04T12:56:42.931Z,20.49
2022-09-04T13:01:57.119Z,22.17
2022-09-04T13:07:16.373Z,21.69
2022-09-04T13:12:31.744Z,21.97
2022-09-04T13:17:51.415Z,23.63
2022-09-04T13:23:10.989Z,23.21
2022-09-04T13:28:33.733Z,22.39
2022-09-04T13:33:53.716Z,21.41
2022-09-04T13:39:30.566Z,22.02
2022-09-04T13:45:04.510Z,21.65
2022-09-04T13:50:17.933Z,22.31
2022-09-04T13:55:26.002Z,22.20
2022-09-04T14:00:34.396Z,21.35
2022-09-04T14:05:40.277Z,24.66
2022-09-04T14:11:21.539Z,24.31
2022-09-04T14:16:28.056Z,23.39
2022-09-04T14:21:46.019Z,22.48
2022-09-04T14:27:01.398Z,21.61
2022-09-04T14:32:22.732Z,21.40
2022-09-04T14:37:48.529Z,21.77
2022-09-04T14:43:01.888Z,21.29
2022-09-04T14:48:12.948Z,21.33
2022-09-04T14:53:25.211Z,21.40
2022-09-04T14:58:35.762Z,21.22
2022-09-04T15:03:51.294Z,20.78
2022-09-04T15:08:57.602Z,20.40
2022-09-04T15:14:08.337Z,20.32
2022-09-04T15:19:36.422Z,20.44
2022-09-04T15:24:54.661Z,20.73
2022-09-04T15:30:07.031Z,20.53
2022-09-04T15:35:23.352Z,20.58
2022-09-04T15:40:35.231Z,20.51
2022-09-04T15:45:47.533Z,20.57
2022-09-04T15:51:21.204Z,20.50
2022-09-04T15:56:38.385Z,19.97
2022-09-04T16:01:51.278Z,20.12
2022-09-04T16:07:06.959Z,19.77
2022-09-04T16:12:18.765Z,19.60
2022-09-04T16:17:27.233Z,19.10
2022-09-04T16:22:42.428Z,19.18
2022-09-04T16:27:51.171Z,18.88
2022-09-04T16:32:55.712Z,18.84
2022-09-04T16:38:09.520Z,18.97
2022-09-04T16:43:25.349Z,18.71
2022-09-04T16:48:35.474Z,18.51
2022-09-04T16:53:49.105Z,18.55
2022-09-04T16:58:56.843Z,18.71
2022-09-04T17:04:29.951Z,18.69
2022-09-04T17:09:56.891Z,18.58
2022-09-04T17:15:13.619Z,18.54
2022-09-04T17:21:39.672Z,18.49
2022-09-04T17:29:16.662Z,18.31
2022-09-04T17:31:30.180Z,18.17
2022-09-04T17:40:46.826Z,17.94
2022-09-04T17:42:17.200Z,17.96
2022-09-04T17:47:30.632Z,17.91
2022-09-04T17:52:39.550Z,17.88
2022-09-04T17:57:57.633Z,17.85
2022-09-04T18:03:07.997Z,17.75
2022-09-04T18:08:19.302Z,17.66
2022-09-04T18:13:38.030Z,17.68
2022-09-04T18:18:47.274Z,17.53
2022-09-04T18:24:00.730Z,17.35
2022-09-04T18:30:06.663Z,17.29
2022-09-04T18:37:16.261Z,17.31
2022-09-04T18:40:20.456Z,17.18
2022-09-04T18:50:39.878Z,17.32
2022-09-04T18:51:22.087Z,17.28
2022-09-04T18:56:30.613Z,17.34
2022-09-04T19:01:45.470Z,17.22
2022-09-04T19:07:07.378Z,17.21
2022-09-04T19:12:15.660Z,17.17
2022-09-04T19:17:28.377Z,17.20
2022-09-04T19:22:39.127Z,17.21
2022-09-04T19:27:49.966Z,17.15
2022-09-04T19:33:12.550Z,17.12
2022-09-04T19:45:54.825Z,17.15
2022-09-04T19:46:17.544Z,17.14
2022-09-04T19:53:17.607Z,16.97
2022-09-04T19:55:23.720Z,16.87
2022-09-04T20:00:43.970Z,16.90
2022-09-04T20:06:00.384Z,16.81
2022-09-04T20:11:35.362Z,16.61
2022-09-04T20:16:49.072Z,16.45
2022-09-04T20:22:01.516Z,16.45
2022-09-04T20:27:15.964Z,16.51
2022-09-04T20:32:26.814Z,16.38
2022-09-04T20:37:46.588Z,16.31
2022-09-04T20:42:56.987Z,16.15
2022-09-04T20:52:42.180Z,16.11
2022-09-04T20:53:55.726Z,16.17
2022-09-04T21:03:13.237Z,16.11
2022-09-04T21:05:03.294Z,15.98
2022-09-04T21:10:18.979Z,15.85
2022-09-04T21:15:38.419Z,15.71
2022-09-04T21:21:13.843Z,15.52
2022-09-04T21:26:32.380Z,15.55
2022-09-04T21:31:59.031Z,15.65
2022-09-04T21:37:10.583Z,15.74
2022-09-04T21:42:43.235Z,15.83
2022-09-04T21:48:18.495Z,15.83
2022-09-04T21:54:13.079Z,15.90
2022-09-04T22:02:42.250Z,15.91
2022-09-04T22:05:50.495Z,15.90
2022-09-04T22:13:29.247Z,15.95
2022-09-04T22:16:51.888Z,15.92
2022-09-04T22:22:11.122Z,15.85
2022-09-04T22:28:08.522Z,15.60
2022-09-04T22:33:32.946Z,15.55
2022-09-04T22:39:21.398Z,15.23
2022-09-04T22:44:59.348Z,14.99
2022-09-04T22:50:54.199Z,14.85
2022-09-04T22:56:23.030Z,14.92
2022-09-04T23:01:54.632Z,14.64
2022-09-04T23:12:09.490Z,14.69
2022-09-04T23:13:51.283Z,14.81
2022-09-04T23:21:43.217Z,14.77
2022-09-04T23:26:53.433Z,14.74
2022-09-04T23:30:25.636Z,14.72
2022-09-04T23:35:43.640Z,14.81
2022-09-04T23:41:17.650Z,14.80
2022-09-04T23:47:02.891Z,14.88
2022-09-04T23:52:48.787Z,14.84
2022-09-04T23:58:47.131Z,14.83
